Flight Briefing for CMB837

Departure Arrival
Joint Base McGuire Dix Lakehurst (KWRI)
Click to view FAA NOTAMS
Ramstein Air Force Base (ETAR)
Click to view FAA NOTAMS
Departure Time Arrival Time
N/A N/A
Aircraft Distance
B767-300BDSF 3379nm
Departure METAR Arrival METAR
KWRI 250256Z AUTO 06007KT 10SM FEW190 17/10 A3009 RMK AO2 SLP188 T01730104 50020 TSNO $ ETAR 250256Z AUTO 00000KT 9999 SCT070 BKN095 BKN110 11/10 A2997 RMK AO2 SLP147 T01050097 53001 $
Suggested Route
PTPL5 SHLEP HTO WHALE N135A PORTI NATW ATSUR GAPLI UN20 SAM UM140 DVR UL9 KONAN UL607 SPI UT180 PESOV T180 NIVNU T847 SIPVU T847 OLIVI Q762 XIDOD


View recent IFR Routes data
Notes
USTRANSCOM CONTRACT FLIGHT

Charts and Procedures

Charts for KWRI
No chart available
Charts for ETAR
No chart available

Windy.com Weather Map